LYBE/BEG METAR and TAF weather

Enter ICAO airport designator
Station Type Date Time Source
LYBE METAR 2018/11/15 06:00 UTC NOAA

LYBE 150600Z 26006KT 5000 BR SCT040 02/01 Q1029 TEMPO 4000


Station Type Date Time Source
LYBE Decoded METAR 2018/11/15 06:00 UTC NOAA

Beograd / Surcin, Serbia and Montenegro (LYBE) 44-49N 020-17E 99M
Nov 15, 2018 - 01:00 AM EST / 2018.11.15 0600 UTC
Wind: from the W (260 degrees) at 7 MPH (6 KT):0
Visibility: 3 mile(s):0
Sky conditions: partly cloudy
Weather: mist
Temperature: 35 F (2 C)
Windchill: 28 F (-2 C):1
Dew Point: 33 F (1 C)
Relative Humidity: 93%
Pressure (altimeter): 30.39 in. Hg (1029 hPa)
ob: LYBE 150600Z 26006KT 5000 BR SCT040 02/01 Q1029 TEMPO 4000
cycle: 6

Station Type Date Time Source
LYBE TAF 2018/11/15 06:21 UTC NOAA

TAF LYBE 150500Z 1506/1606 33008KT CAVOK TX12/1512Z TN00/1605Z
TEMPO 1603/1606 3000 BR


Example: see airport list